createdAt,value
2019-02-14T00:03:10.144Z,68.71
2019-02-14T00:08:13.972Z,68.67
2019-02-14T00:13:17.900Z,68.73
2019-02-14T00:18:21.805Z,68.89
2019-02-14T00:23:25.726Z,68.85
2019-02-14T00:28:29.916Z,68.74
2019-02-14T00:33:33.844Z,68.76
2019-02-14T00:38:38.004Z,68.85
2019-02-14T00:43:43.246Z,68.89
2019-02-14T00:48:47.205Z,69.00
2019-02-14T00:53:51.228Z,69.21
2019-02-14T00:58:55.224Z,69.25
2019-02-14T01:03:59.176Z,69.24
2019-02-14T01:09:03.219Z,69.46
2019-02-14T01:14:08.102Z,69.36
2019-02-14T01:19:12.005Z,69.39
2019-02-14T01:24:15.897Z,69.26
2019-02-14T01:29:19.966Z,69.17
2019-02-14T01:34:23.889Z,69.32
2019-02-14T01:39:27.818Z,69.54
2019-02-14T01:44:31.682Z,69.56
2019-02-14T01:49:36.279Z,69.84
2019-02-14T01:54:40.168Z,70.23
2019-02-14T01:59:44.146Z,70.47
2019-02-14T02:04:48.060Z,70.28
2019-02-14T02:09:51.976Z,70.22
2019-02-14T02:14:55.857Z,70.68
2019-02-14T02:19:59.773Z,70.52
2019-02-14T02:25:04.585Z,70.05
2019-02-14T02:30:10.735Z,69.99
2019-02-14T02:35:14.689Z,70.14
2019-02-14T02:40:18.682Z,70.12
2019-02-14T02:45:22.603Z,70.34
2019-02-14T02:50:26.636Z,70.45
2019-02-14T02:55:30.570Z,70.27
2019-02-14T03:00:34.472Z,70.14
2019-02-14T03:05:38.355Z,70.16
2019-02-14T03:10:42.313Z,70.23
2019-02-14T03:15:46.278Z,70.07
2019-02-14T03:20:50.248Z,70.33
2019-02-14T03:25:54.135Z,70.70
2019-02-14T03:30:57.972Z,70.73
2019-02-14T03:36:01.816Z,70.73
2019-02-14T03:41:05.779Z,70.81
2019-02-14T03:46:09.700Z,70.84
2019-02-14T03:51:13.692Z,70.82
2019-02-14T03:56:17.784Z,70.64
2019-02-14T04:01:21.778Z,70.54
2019-02-14T04:06:27.808Z,70.56
2019-02-14T04:11:31.815Z,70.47
2019-02-14T04:16:35.782Z,70.61
2019-02-14T04:21:39.594Z,70.90
2019-02-14T04:26:43.544Z,70.95
2019-02-14T04:31:47.436Z,70.82
2019-02-14T04:36:51.313Z,70.58
2019-02-14T04:41:55.282Z,70.60
2019-02-14T04:46:59.164Z,70.58
2019-02-14T04:52:03.063Z,70.68
2019-02-14T04:57:06.888Z,70.83
2019-02-14T05:02:10.716Z,70.82
2019-02-14T05:07:14.668Z,70.81
2019-02-14T05:12:18.581Z,70.96
2019-02-14T05:17:22.566Z,70.74
2019-02-14T05:22:26.449Z,70.67
2019-02-14T05:27:30.383Z,70.64
2019-02-14T05:32:34.246Z,70.41
2019-02-14T05:37:38.156Z,70.31
2019-02-14T05:42:41.963Z,70.23
2019-02-14T05:47:45.929Z,70.02
2019-02-14T05:52:49.949Z,69.77
2019-02-14T05:57:53.807Z,69.77
2019-02-14T06:02:57.801Z,69.93
2019-02-14T06:08:03.364Z,69.89
2019-02-14T06:13:07.342Z,69.82
2019-02-14T06:18:11.370Z,69.58
2019-02-14T06:23:15.307Z,69.54
2019-02-14T06:28:19.393Z,69.44
2019-02-14T06:33:23.352Z,69.33
2019-02-14T06:38:27.498Z,69.26
2019-02-14T06:43:31.850Z,69.28
2019-02-14T06:48:35.756Z,69.38
2019-02-14T06:53:39.768Z,69.66
2019-02-14T06:58:43.786Z,69.75
2019-02-14T07:03:47.793Z,69.97
2019-02-14T07:08:51.624Z,69.94
2019-02-14T07:13:55.575Z,69.98
2019-02-14T07:18:59.482Z,69.97
2019-02-14T07:24:03.444Z,69.94
2019-02-14T07:29:07.481Z,70.02
2019-02-14T07:34:11.418Z,70.02
2019-02-14T07:39:15.408Z,70.00
2019-02-14T07:44:19.571Z,70.15
2019-02-14T07:49:23.477Z,70.40
2019-02-14T07:54:27.564Z,71.76
2019-02-14T07:59:31.455Z,73.38
2019-02-14T08:04:35.449Z,73.07
2019-02-14T08:09:40.354Z,72.27
2019-02-14T08:14:44.392Z,71.16
2019-02-14T08:19:48.673Z,69.82
2019-02-14T08:24:52.582Z,69.42
2019-02-14T08:29:56.461Z,68.97
2019-02-14T08:35:00.536Z,68.11
2019-02-14T08:40:04.802Z,66.45
2019-02-14T08:45:09.781Z,65.34
2019-02-14T08:50:13.732Z,64.24
2019-02-14T08:55:17.820Z,63.04
2019-02-14T09:00:21.659Z,62.28
2019-02-14T09:05:25.644Z,61.53
2019-02-14T09:10:29.616Z,60.15
2019-02-14T09:15:33.460Z,59.14
2019-02-14T09:20:37.492Z,59.53
2019-02-14T09:25:42.227Z,58.40
2019-02-14T09:30:46.429Z,56.79
2019-02-14T09:35:50.382Z,56.13
2019-02-14T09:40:54.820Z,55.99
2019-02-14T09:45:59.010Z,55.42
2019-02-14T09:51:03.171Z,55.87
2019-02-14T09:56:07.786Z,55.45
2019-02-14T10:01:11.638Z,54.23
2019-02-14T10:06:15.656Z,54.56
2019-02-14T10:11:19.683Z,53.21
2019-02-14T10:16:23.614Z,52.08
2019-02-14T10:21:27.552Z,51.37
2019-02-14T10:26:31.760Z,51.05
2019-02-14T10:31:36.404Z,50.16
2019-02-14T10:36:40.424Z,49.38
2019-02-14T10:41:44.338Z,49.93
2019-02-14T10:46:48.362Z,49.48
2019-02-14T10:51:52.372Z,49.03
2019-02-14T10:56:56.296Z,50.42
2019-02-14T11:02:00.145Z,48.55
2019-02-14T11:07:04.154Z,48.84
2019-02-14T11:12:08.636Z,48.23
2019-02-14T11:17:13.261Z,46.85
2019-02-14T11:22:17.284Z,46.65
2019-02-14T11:27:21.172Z,45.88
2019-02-14T11:32:25.108Z,45.35
2019-02-14T11:37:29.169Z,45.24
2019-02-14T11:42:33.282Z,45.91
2019-02-14T11:47:37.090Z,45.01
2019-02-14T11:52:43.068Z,45.54
2019-02-14T11:57:47.052Z,44.85
2019-02-14T12:02:55.456Z,43.92
2019-02-14T12:07:56.776Z,41.95
2019-02-14T12:13:00.701Z,41.77
2019-02-14T12:18:04.816Z,39.88
2019-02-14T12:23:08.800Z,40.40
2019-02-14T12:28:12.734Z,40.74
2019-02-14T12:33:16.720Z,40.39
2019-02-14T12:38:20.744Z,40.02
2019-02-14T12:43:24.816Z,40.30
2019-02-14T12:48:28.920Z,39.77
2019-02-14T12:53:33.229Z,39.63
2019-02-14T12:58:37.210Z,39.58
2019-02-14T13:03:41.147Z,40.22
2019-02-14T13:08:45.085Z,40.41
2019-02-14T13:13:50.361Z,40.02
2019-02-14T13:18:54.638Z,39.17
2019-02-14T13:23:58.630Z,38.44
2019-02-14T13:29:02.538Z,38.04
2019-02-14T13:34:06.470Z,37.60
2019-02-14T13:39:10.694Z,37.02
2019-02-14T13:44:14.553Z,36.45
2019-02-14T13:49:18.781Z,36.31
2019-02-14T13:54:22.680Z,34.97
2019-02-14T13:59:26.588Z,34.76
2019-02-14T14:04:30.964Z,34.26
2019-02-14T14:09:38.711Z,34.45
2019-02-14T14:14:40.807Z,35.03
2019-02-14T14:19:44.729Z,33.93
2019-02-14T14:24:48.667Z,33.77
2019-02-14T14:29:53.006Z,33.61
2019-02-14T14:34:56.854Z,33.10
2019-02-14T14:40:00.963Z,33.34
2019-02-14T14:45:07.167Z,32.21
2019-02-14T14:50:11.171Z,32.54
2019-02-14T14:55:15.119Z,33.49
2019-02-14T15:00:19.284Z,32.56
2019-02-14T15:05:23.489Z,33.43
2019-02-14T15:10:27.486Z,32.99
2019-02-14T15:15:31.539Z,33.90
2019-02-14T15:20:35.525Z,35.45
2019-02-14T15:25:39.476Z,34.67
2019-02-14T15:30:43.588Z,34.72
2019-02-14T15:35:47.516Z,32.80
2019-02-14T15:40:51.387Z,32.00
2019-02-14T15:45:55.412Z,34.83
2019-02-14T15:50:59.555Z,37.24
2019-02-14T15:56:05.432Z,38.37
2019-02-14T16:01:09.197Z,36.61
2019-02-14T16:06:13.807Z,36.39
2019-02-14T16:11:19.620Z,36.94
2019-02-14T16:16:24.188Z,36.38
2019-02-14T16:21:29.526Z,35.86
2019-02-14T16:26:35.301Z,36.69
2019-02-14T16:31:39.627Z,36.29
2019-02-14T16:36:43.621Z,36.19
2019-02-14T16:41:47.628Z,36.59
2019-02-14T16:46:51.577Z,36.41
2019-02-14T16:51:55.501Z,36.74
2019-02-14T16:56:59.629Z,36.86
2019-02-14T17:02:03.547Z,37.11
2019-02-14T17:07:07.833Z,37.36
2019-02-14T17:12:11.731Z,36.80
2019-02-14T17:17:15.637Z,36.66
2019-02-14T17:22:20.915Z,37.36
2019-02-14T17:27:25.162Z,37.34
2019-02-14T17:32:32.083Z,37.31
2019-02-14T17:37:36.027Z,37.07
2019-02-14T17:42:40.080Z,37.56
2019-02-14T17:47:44.448Z,37.70
2019-02-14T17:52:48.501Z,37.83
2019-02-14T17:57:53.838Z,38.02
2019-02-14T18:02:59.043Z,38.11
2019-02-14T18:08:03.009Z,38.18
2019-02-14T18:13:07.105Z,38.29
2019-02-14T18:18:11.278Z,38.21
2019-02-14T18:23:15.195Z,38.43
2019-02-14T18:28:19.639Z,38.58
2019-02-14T18:33:23.752Z,38.83
2019-02-14T18:38:27.764Z,39.26
2019-02-14T18:43:31.620Z,39.45
2019-02-14T18:48:35.724Z,39.48
2019-02-14T18:53:39.748Z,39.71
2019-02-14T18:58:43.760Z,39.93
2019-02-14T19:03:47.619Z,40.16
2019-02-14T19:08:51.949Z,40.16
2019-02-14T19:13:55.930Z,40.50
2019-02-14T19:18:59.943Z,40.98
2019-02-14T19:24:03.967Z,41.00
2019-02-14T19:29:08.278Z,41.19
2019-02-14T19:34:12.454Z,41.32
2019-02-14T19:39:16.351Z,41.72
2019-02-14T19:44:20.204Z,41.76
2019-02-14T19:49:24.200Z,42.42
2019-02-14T19:54:28.221Z,42.92
2019-02-14T19:59:32.096Z,43.42
2019-02-14T20:04:36.124Z,43.88
2019-02-14T20:09:41.633Z,44.28
2019-02-14T20:14:45.729Z,44.86
2019-02-14T20:19:49.793Z,45.28
2019-02-14T20:24:57.252Z,45.75
2019-02-14T20:58:47.822Z,46.87
2019-02-14T21:04:03.143Z,47.48
2019-02-14T21:16:02.924Z,48.12
2019-02-14T21:21:07.440Z,48.46
2019-02-14T21:26:11.584Z,48.62
2019-02-14T21:31:15.841Z,48.81
2019-02-14T21:36:19.665Z,48.97
2019-02-14T21:41:23.668Z,48.96
2019-02-14T21:46:27.521Z,49.10
2019-02-14T21:51:31.423Z,49.37
2019-02-14T21:56:35.416Z,49.83
2019-02-14T22:01:39.453Z,50.51
2019-02-14T22:06:43.487Z,50.61
2019-02-14T22:11:47.502Z,50.69
2019-02-14T22:16:51.319Z,50.65
2019-02-14T22:21:55.426Z,50.74
2019-02-14T22:26:59.443Z,50.71
2019-02-14T22:32:03.407Z,50.63
2019-02-14T22:37:07.270Z,50.55
2019-02-14T22:42:11.380Z,50.63
2019-02-14T22:47:15.529Z,50.48
2019-02-14T22:52:20.062Z,50.51
2019-02-14T22:57:24.052Z,50.26
2019-02-14T23:02:28.051Z,50.57
2019-02-14T23:07:32.164Z,50.46
2019-02-14T23:12:36.006Z,49.99
2019-02-14T23:17:39.978Z,50.89
2019-02-14T23:22:43.868Z,50.80
2019-02-14T23:27:47.782Z,51.17
2019-02-14T23:32:51.770Z,50.34
2019-02-14T23:37:55.760Z,51.11
2019-02-14T23:43:04.847Z,50.89
2019-02-14T23:48:05.325Z,50.98
2019-02-14T23:53:09.268Z,50.64
2019-02-14T23:58:14.721Z,50.84
